sensor_id;sensor_type;location;lat;lon;timestamp;pressure;altitude;pressure_sealevel;temperature;humidity
10510;BME280;5303;53.266;10.410;2022-11-14T00:02:23;101971.94;;;8.87;100.00
10510;BME280;5303;53.266;10.410;2022-11-14T00:04:48;101966.25;;;8.90;100.00
10510;BME280;5303;53.266;10.410;2022-11-14T00:07:14;101965.78;;;8.85;100.00
10510;BME280;5303;53.266;10.410;2022-11-14T00:09:39;101958.75;;;8.82;100.00
10510;BME280;5303;53.266;10.410;2022-11-14T00:12:10;101960.09;;;8.88;100.00
10510;BME280;5303;53.266;10.410;2022-11-14T00:14:36;101956.66;;;8.86;100.00
10510;BME280;5303;53.266;10.410;2022-11-14T00:17:03;101955.50;;;8.89;100.00
10510;BME280;5303;53.266;10.410;2022-11-14T00:19:28;101954.59;;;8.78;100.00
10510;BME280;5303;53.266;10.410;2022-11-14T00:21:53;101953.94;;;8.86;100.00
10510;BME280;5303;53.266;10.410;2022-11-14T00:24:19;101963.38;;;8.92;100.00
10510;BME280;5303;53.266;10.410;2022-11-14T00:26:45;101949.53;;;8.95;100.00
10510;BME280;5303;53.266;10.410;2022-11-14T00:29:11;101954.97;;;8.95;100.00
10510;BME280;5303;53.266;10.410;2022-11-14T00:31:37;101949.94;;;8.90;100.00
10510;BME280;5303;53.266;10.410;2022-11-14T00:34:02;101946.38;;;8.90;100.00
10510;BME280;5303;53.266;10.410;2022-11-14T00:36:28;101938.66;;;8.95;100.00
10510;BME280;5303;53.266;10.410;2022-11-14T00:38:53;101942.66;;;8.91;100.00
10510;BME280;5303;53.266;10.410;2022-11-14T00:41:19;101943.06;;;8.86;100.00
10510;BME280;5303;53.266;10.410;2022-11-14T00:43:44;101942.91;;;8.88;100.00
10510;BME280;5303;53.266;10.410;2022-11-14T00:46:10;101939.03;;;8.80;100.00
10510;BME280;5303;53.266;10.410;2022-11-14T00:48:35;101934.50;;;8.70;100.00
10510;BME280;5303;53.266;10.410;2022-11-14T00:51:00;101933.06;;;8.66;100.00
10510;BME280;5303;53.266;10.410;2022-11-14T00:53:26;101921.19;;;8.67;100.00
10510;BME280;5303;53.266;10.410;2022-11-14T00:55:51;101927.84;;;8.74;100.00
10510;BME280;5303;53.266;10.410;2022-11-14T00:58:16;101923.25;;;8.74;100.00
10510;BME280;5303;53.266;10.410;2022-11-14T01:00:41;101916.13;;;8.73;100.00
10510;BME280;5303;53.266;10.410;2022-11-14T01:03:07;101912.41;;;8.74;100.00
10510;BME280;5303;53.266;10.410;2022-11-14T01:05:32;101911.94;;;8.69;100.00
10510;BME280;5303;53.266;10.410;2022-11-14T01:07:57;101912.84;;;8.79;100.00
10510;BME280;5303;53.266;10.410;2022-11-14T01:10:23;101910.47;;;8.65;100.00
10510;BME280;5303;53.266;10.410;2022-11-14T01:12:48;101903.19;;;8.66;100.00
10510;BME280;5303;53.266;10.410;2022-11-14T01:15:13;101908.50;;;8.67;100.00
10510;BME280;5303;53.266;10.410;2022-11-14T01:17:39;101902.66;;;8.72;100.00
10510;BME280;5303;53.266;10.410;2022-11-14T01:20:05;101902.19;;;8.67;100.00
10510;BME280;5303;53.266;10.410;2022-11-14T01:22:30;101897.91;;;8.64;100.00
10510;BME280;5303;53.266;10.410;2022-11-14T01:24:55;101897.38;;;8.70;100.00
10510;BME280;5303;53.266;10.410;2022-11-14T01:27:25;101891.94;;;8.70;100.00
10510;BME280;5303;53.266;10.410;2022-11-14T01:29:50;101892.16;;;8.57;100.00
10510;BME280;5303;53.266;10.410;2022-11-14T01:32:16;101887.91;;;8.65;100.00
10510;BME280;5303;53.266;10.410;2022-11-14T01:34:41;101888.00;;;8.63;100.00
10510;BME280;5303;53.266;10.410;2022-11-14T01:37:06;101878.34;;;8.70;100.00
10510;BME280;5303;53.266;10.410;2022-11-14T01:39:32;101877.75;;;8.67;100.00
10510;BME280;5303;53.266;10.410;2022-11-14T01:41:57;101876.88;;;8.66;100.00
10510;BME280;5303;53.266;10.410;2022-11-14T01:47:10;101864.91;;;8.69;100.00
10510;BME280;5303;53.266;10.410;2022-11-14T01:49:40;101853.63;;;8.73;100.00
10510;BME280;5303;53.266;10.410;2022-11-14T01:52:12;101847.78;;;8.78;100.00
10510;BME280;5303;53.266;10.410;2022-11-14T01:54:44;101846.72;;;8.69;100.00
10510;BME280;5303;53.266;10.410;2022-11-14T01:57:11;101845.94;;;8.78;100.00
10510;BME280;5303;53.266;10.410;2022-11-14T01:59:41;101841.50;;;8.77;100.00
10510;BME280;5303;53.266;10.410;2022-11-14T02:02:16;101840.38;;;8.80;100.00
10510;BME280;5303;53.266;10.410;2022-11-14T02:04:46;101842.91;;;8.72;100.00
10510;BME280;5303;53.266;10.410;2022-11-14T02:07:12;101837.19;;;8.75;100.00
10510;BME280;5303;53.266;10.410;2022-11-14T02:09:39;101829.19;;;8.73;100.00
10510;BME280;5303;53.266;10.410;2022-11-14T02:12:09;101822.88;;;8.73;100.00
10510;BME280;5303;53.266;10.410;2022-11-14T02:14:36;101820.47;;;8.79;100.00
10510;BME280;5303;53.266;10.410;2022-11-14T02:17:02;101813.44;;;8.67;100.00
10510;BME280;5303;53.266;10.410;2022-11-14T02:19:51;101815.16;;;8.68;100.00
10510;BME280;5303;53.266;10.410;2022-11-14T02:22:17;101807.78;;;8.80;100.00
10510;BME280;5303;53.266;10.410;2022-11-14T02:24:44;101809.31;;;8.82;100.00
10510;BME280;5303;53.266;10.410;2022-11-14T02:27:10;101801.44;;;8.79;100.00
10510;BME280;5303;53.266;10.410;2022-11-14T02:29:36;101806.47;;;8.74;100.00
10510;BME280;5303;53.266;10.410;2022-11-14T02:32:02;101795.44;;;8.76;100.00
10510;BME280;5303;53.266;10.410;2022-11-14T02:34:28;101786.72;;;8.72;100.00
10510;BME280;5303;53.266;10.410;2022-11-14T02:36:53;101792.03;;;8.74;100.00
10510;BME280;5303;53.266;10.410;2022-11-14T02:39:19;101792.88;;;8.74;100.00
10510;BME280;5303;53.266;10.410;2022-11-14T02:41:44;101793.88;;;8.73;100.00
10510;BME280;5303;53.266;10.410;2022-11-14T02:44:09;101796.13;;;8.68;100.00
10510;BME280;5303;53.266;10.410;2022-11-14T02:46:35;101784.84;;;8.73;100.00
10510;BME280;5303;53.266;10.410;2022-11-14T02:49:00;101785.38;;;8.67;100.00
10510;BME280;5303;53.266;10.410;2022-11-14T02:51:25;101780.69;;;8.69;100.00
10510;BME280;5303;53.266;10.410;2022-11-14T02:53:51;101781.69;;;8.68;100.00
10510;BME280;5303;53.266;10.410;2022-11-14T02:56:16;101774.88;;;8.73;100.00
10510;BME280;5303;53.266;10.410;2022-11-14T02:58:41;101769.44;;;8.73;100.00
10510;BME280;5303;53.266;10.410;2022-11-14T03:01:07;101770.88;;;8.77;100.00
10510;BME280;5303;53.266;10.410;2022-11-14T03:03:32;101759.28;;;8.75;100.00
10510;BME280;5303;53.266;10.410;2022-11-14T03:05:58;101758.41;;;8.75;100.00
10510;BME280;5303;53.266;10.410;2022-11-14T03:08:24;101760.41;;;8.73;100.00
10510;BME280;5303;53.266;10.410;2022-11-14T03:10:49;101758.88;;;8.80;100.00
10510;BME280;5303;53.266;10.410;2022-11-14T03:13:14;101754.03;;;8.83;100.00
10510;BME280;5303;53.266;10.410;2022-11-14T03:15:39;101752.72;;;8.78;100.00
10510;BME280;5303;53.266;10.410;2022-11-14T03:18:05;101741.69;;;8.79;100.00
10510;BME280;5303;53.266;10.410;2022-11-14T03:20:30;101750.84;;;8.78;100.00
10510;BME280;5303;53.266;10.410;2022-11-14T03:22:55;101735.41;;;8.79;100.00
10510;BME280;5303;53.266;10.410;2022-11-14T03:25:21;101735.09;;;8.72;100.00
10510;BME280;5303;53.266;10.410;2022-11-14T03:27:46;101727.94;;;8.61;100.00
10510;BME280;5303;53.266;10.410;2022-11-14T03:30:12;101731.22;;;8.65;100.00
10510;BME280;5303;53.266;10.410;2022-11-14T03:32:37;101727.69;;;8.74;100.00
10510;BME280;5303;53.266;10.410;2022-11-14T03:35:03;101721.41;;;8.74;100.00
10510;BME280;5303;53.266;10.410;2022-11-14T03:37:28;101721.66;;;8.71;100.00
10510;BME280;5303;53.266;10.410;2022-11-14T03:39:53;101720.81;;;8.70;100.00
10510;BME280;5303;53.266;10.410;2022-11-14T03:42:19;101717.81;;;8.73;100.00
10510;BME280;5303;53.266;10.410;2022-11-14T03:44:44;101721.78;;;8.69;100.00
10510;BME280;5303;53.266;10.410;2022-11-14T03:47:09;101714.66;;;8.68;100.00
10510;BME280;5303;53.266;10.410;2022-11-14T03:49:34;101711.19;;;8.66;100.00
10510;BME280;5303;53.266;10.410;2022-11-14T03:52:00;101702.78;;;8.69;100.00
10510;BME280;5303;53.266;10.410;2022-11-14T03:54:25;101704.63;;;8.69;100.00
10510;BME280;5303;53.266;10.410;2022-11-14T03:56:50;101697.06;;;8.72;100.00
10510;BME280;5303;53.266;10.410;2022-11-14T03:59:15;101694.34;;;8.72;100.00
10510;BME280;5303;53.266;10.410;2022-11-14T04:01:41;101695.63;;;8.68;100.00
10510;BME280;5303;53.266;10.410;2022-11-14T04:04:06;101697.63;;;8.66;100.00
10510;BME280;5303;53.266;10.410;2022-11-14T04:06:31;101689.66;;;8.74;100.00
10510;BME280;5303;53.266;10.410;2022-11-14T04:08:57;101694.34;;;8.72;100.00
10510;BME280;5303;53.266;10.410;2022-11-14T04:11:22;101685.06;;;8.65;100.00
10510;BME280;5303;53.266;10.410;2022-11-14T04:13:47;101687.03;;;8.63;100.00
10510;BME280;5303;53.266;10.410;2022-11-14T04:16:12;101680.34;;;8.57;100.00
10510;BME280;5303;53.266;10.410;2022-11-14T04:18:38;101671.31;;;8.67;100.00
10510;BME280;5303;53.266;10.410;2022-11-14T04:21:03;101668.59;;;8.67;100.00
10510;BME280;5303;53.266;10.410;2022-11-14T04:23:28;101667.31;;;8.61;100.00
10510;BME280;5303;53.266;10.410;2022-11-14T04:25:55;101664.19;;;8.66;100.00
10510;BME280;5303;53.266;10.410;2022-11-14T04:28:20;101653.03;;;8.69;100.00
10510;BME280;5303;53.266;10.410;2022-11-14T04:30:46;101664.63;;;8.61;100.00
10510;BME280;5303;53.266;10.410;2022-11-14T04:33:11;101656.75;;;8.68;100.00
10510;BME280;5303;53.266;10.410;2022-11-14T04:35:36;101655.47;;;8.62;100.00
10510;BME280;5303;53.266;10.410;2022-11-14T04:38:02;101657.63;;;8.68;100.00
10510;BME280;5303;53.266;10.410;2022-11-14T04:40:27;101656.47;;;8.71;100.00
10510;BME280;5303;53.266;10.410;2022-11-14T04:42:53;101652.00;;;8.60;100.00
10510;BME280;5303;53.266;10.410;2022-11-14T04:45:18;101651.19;;;8.69;100.00
10510;BME280;5303;53.266;10.410;2022-11-14T04:47:43;101645.72;;;8.59;100.00
10510;BME280;5303;53.266;10.410;2022-11-14T04:50:09;101642.88;;;8.61;100.00
10510;BME280;5303;53.266;10.410;2022-11-14T04:52:34;101647.75;;;8.67;100.00
10510;BME280;5303;53.266;10.410;2022-11-14T04:54:59;101638.72;;;8.67;100.00
10510;BME280;5303;53.266;10.410;2022-11-14T04:57:25;101649.47;;;8.68;100.00
10510;BME280;5303;53.266;10.410;2022-11-14T04:59:50;101638.03;;;8.65;100.00
10510;BME280;5303;53.266;10.410;2022-11-14T05:02:15;101645.44;;;8.62;100.00
10510;BME280;5303;53.266;10.410;2022-11-14T05:04:41;101639.69;;;8.46;100.00
10510;BME280;5303;53.266;10.410;2022-11-14T05:07:08;101639.44;;;8.49;100.00
10510;BME280;5303;53.266;10.410;2022-11-14T05:09:33;101631.56;;;8.56;100.00
10510;BME280;5303;53.266;10.410;2022-11-14T05:12:01;101636.88;;;8.57;100.00
10510;BME280;5303;53.266;10.410;2022-11-14T05:14:26;101636.44;;;8.62;100.00
10510;BME280;5303;53.266;10.410;2022-11-14T05:16:51;101630.56;;;8.57;100.00
10510;BME280;5303;53.266;10.410;2022-11-14T05:19:17;101620.31;;;8.60;100.00
10510;BME280;5303;53.266;10.410;2022-11-14T05:21:42;101617.59;;;8.60;100.00
10510;BME280;5303;53.266;10.410;2022-11-14T05:24:07;101622.00;;;8.61;100.00
10510;BME280;5303;53.266;10.410;2022-11-14T05:26:32;101621.00;;;8.62;100.00
10510;BME280;5303;53.266;10.410;2022-11-14T05:28:58;101610.59;;;8.68;100.00
10510;BME280;5303;53.266;10.410;2022-11-14T05:31:23;101617.59;;;8.70;100.00
10510;BME280;5303;53.266;10.410;2022-11-14T05:33:48;101619.31;;;8.61;100.00
10510;BME280;5303;53.266;10.410;2022-11-14T05:36:15;101618.44;;;8.61;100.00
10510;BME280;5303;53.266;10.410;2022-11-14T05:38:42;101618.16;;;8.64;100.00
10510;BME280;5303;53.266;10.410;2022-11-14T05:41:09;101627.00;;;8.66;100.00
10510;BME280;5303;53.266;10.410;2022-11-14T05:43:35;101617.72;;;8.59;100.00
10510;BME280;5303;53.266;10.410;2022-11-14T05:46:01;101618.28;;;8.53;100.00
10510;BME280;5303;53.266;10.410;2022-11-14T05:48:27;101621.13;;;8.42;100.00
10510;BME280;5303;53.266;10.410;2022-11-14T05:50:54;101617.69;;;8.49;100.00
10510;BME280;5303;53.266;10.410;2022-11-14T05:53:19;101619.69;;;8.47;100.00
10510;BME280;5303;53.266;10.410;2022-11-14T05:55:44;101627.25;;;8.44;100.00
10510;BME280;5303;53.266;10.410;2022-11-14T05:58:10;101623.69;;;8.43;100.00
10510;BME280;5303;53.266;10.410;2022-11-14T06:00:35;101625.06;;;8.37;100.00
10510;BME280;5303;53.266;10.410;2022-11-14T06:03:00;101622.63;;;8.34;100.00
10510;BME280;5303;53.266;10.410;2022-11-14T06:05:25;101618.84;;;8.47;100.00
10510;BME280;5303;53.266;10.410;2022-11-14T06:07:56;101623.28;;;8.38;100.00
10510;BME280;5303;53.266;10.410;2022-11-14T06:10:22;101618.94;;;8.35;100.00
10510;BME280;5303;53.266;10.410;2022-11-14T06:12:47;101622.69;;;8.44;100.00
10510;BME280;5303;53.266;10.410;2022-11-14T06:15:12;101622.34;;;8.37;100.00
10510;BME280;5303;53.266;10.410;2022-11-14T06:17:38;101621.50;;;8.37;100.00
10510;BME280;5303;53.266;10.410;2022-11-14T06:20:04;101627.94;;;8.36;100.00
10510;BME280;5303;53.266;10.410;2022-11-14T06:22:29;101627.47;;;8.31;100.00
10510;BME280;5303;53.266;10.410;2022-11-14T06:24:54;101620.50;;;8.28;100.00
10510;BME280;5303;53.266;10.410;2022-11-14T06:27:19;101623.19;;;8.19;100.00
10510;BME280;5303;53.266;10.410;2022-11-14T06:29:45;101626.78;;;8.29;100.00
10510;BME280;5303;53.266;10.410;2022-11-14T06:32:10;101622.75;;;8.23;100.00
10510;BME280;5303;53.266;10.410;2022-11-14T06:34:35;101629.31;;;8.21;100.00
10510;BME280;5303;53.266;10.410;2022-11-14T06:37:01;101629.59;;;8.17;100.00
10510;BME280;5303;53.266;10.410;2022-11-14T06:39:26;101636.53;;;8.01;100.00
10510;BME280;5303;53.266;10.410;2022-11-14T06:41:51;101628.16;;;8.13;100.00
10510;BME280;5303;53.266;10.410;2022-11-14T06:44:16;101629.25;;;8.01;100.00
10510;BME280;5303;53.266;10.410;2022-11-14T06:46:42;101634.84;;;8.09;100.00
10510;BME280;5303;53.266;10.410;2022-11-14T06:49:07;101628.25;;;8.02;100.00
10510;BME280;5303;53.266;10.410;2022-11-14T06:51:32;101636.41;;;8.12;100.00
10510;BME280;5303;53.266;10.410;2022-11-14T06:53:58;101635.16;;;8.16;100.00
10510;BME280;5303;53.266;10.410;2022-11-14T06:56:23;101631.75;;;8.24;100.00
10510;BME280;5303;53.266;10.410;2022-11-14T06:58:49;101639.03;;;8.23;100.00
10510;BME280;5303;53.266;10.410;2022-11-14T07:03:42;101635.91;;;8.28;100.00
10510;BME280;5303;53.266;10.410;2022-11-14T07:06:10;101636.31;;;8.23;100.00
10510;BME280;5303;53.266;10.410;2022-11-14T07:08:36;101632.03;;;8.21;100.00
10510;BME280;5303;53.266;10.410;2022-11-14T07:13:32;101635.28;;;8.14;100.00
10510;BME280;5303;53.266;10.410;2022-11-14T07:15:58;101642.06;;;7.99;100.00
10510;BME280;5303;53.266;10.410;2022-11-14T07:18:23;101645.13;;;8.06;100.00
10510;BME280;5303;53.266;10.410;2022-11-14T07:20:48;101630.13;;;8.11;100.00
10510;BME280;5303;53.266;10.410;2022-11-14T07:23:14;101628.53;;;8.09;100.00
10510;BME280;5303;53.266;10.410;2022-11-14T07:25:39;101619.84;;;8.15;100.00
10510;BME280;5303;53.266;10.410;2022-11-14T07:28:05;101615.16;;;8.17;100.00
10510;BME280;5303;53.266;10.410;2022-11-14T07:30:32;101615.03;;;8.19;100.00
10510;BME280;5303;53.266;10.410;2022-11-14T07:32:57;101608.72;;;8.18;100.00
10510;BME280;5303;53.266;10.410;2022-11-14T07:35:23;101600.88;;;8.25;100.00
10510;BME280;5303;53.266;10.410;2022-11-14T07:37:49;101615.34;;;8.25;100.00
10510;BME280;5303;53.266;10.410;2022-11-14T07:40:15;101597.63;;;8.31;100.00
10510;BME280;5303;53.266;10.410;2022-11-14T07:42:41;101599.47;;;8.30;100.00
10510;BME280;5303;53.266;10.410;2022-11-14T07:45:07;101594.06;;;8.30;100.00
10510;BME280;5303;53.266;10.410;2022-11-14T07:47:32;101597.91;;;8.28;100.00
10510;BME280;5303;53.266;10.410;2022-11-14T07:49:58;101591.06;;;8.33;100.00
10510;BME280;5303;53.266;10.410;2022-11-14T07:52:23;101591.00;;;8.45;100.00
10510;BME280;5303;53.266;10.410;2022-11-14T07:54:48;101588.63;;;8.30;100.00
10510;BME280;5303;53.266;10.410;2022-11-14T07:57:13;101594.50;;;8.35;100.00
10510;BME280;5303;53.266;10.410;2022-11-14T07:59:39;101588.84;;;8.38;100.00
10510;BME280;5303;53.266;10.410;2022-11-14T08:02:04;101598.25;;;8.44;100.00
10510;BME280;5303;53.266;10.410;2022-11-14T08:04:30;101591.84;;;8.45;100.00
10510;BME280;5303;53.266;10.410;2022-11-14T08:06:55;101596.72;;;8.51;100.00
10510;BME280;5303;53.266;10.410;2022-11-14T08:09:20;101595.41;;;8.46;100.00
10510;BME280;5303;53.266;10.410;2022-11-14T08:11:47;101592.25;;;8.40;100.00
10510;BME280;5303;53.266;10.410;2022-11-14T08:14:12;101589.81;;;8.47;100.00
10510;BME280;5303;53.266;10.410;2022-11-14T08:16:38;101602.72;;;8.55;100.00
10510;BME280;5303;53.266;10.410;2022-11-14T08:19:03;101600.56;;;8.49;100.00
10510;BME280;5303;53.266;10.410;2022-11-14T08:21:28;101603.00;;;8.52;100.00
10510;BME280;5303;53.266;10.410;2022-11-14T08:23:53;101610.56;;;8.48;100.00
10510;BME280;5303;53.266;10.410;2022-11-14T08:26:19;101610.69;;;8.56;100.00
10510;BME280;5303;53.266;10.410;2022-11-14T08:28:44;101606.72;;;8.60;100.00
10510;BME280;5303;53.266;10.410;2022-11-14T08:31:09;101599.28;;;8.62;100.00
10510;BME280;5303;53.266;10.410;2022-11-14T08:33:34;101608.28;;;8.63;100.00
10510;BME280;5303;53.266;10.410;2022-11-14T08:36:01;101596.16;;;8.67;100.00
10510;BME280;5303;53.266;10.410;2022-11-14T08:38:27;101603.84;;;8.62;100.00
10510;BME280;5303;53.266;10.410;2022-11-14T08:40:52;101602.00;;;8.62;100.00
10510;BME280;5303;53.266;10.410;2022-11-14T08:43:17;101593.28;;;8.69;100.00
10510;BME280;5303;53.266;10.410;2022-11-14T08:45:43;101594.00;;;8.71;100.00
10510;BME280;5303;53.266;10.410;2022-11-14T08:48:08;101593.28;;;8.78;100.00
10510;BME280;5303;53.266;10.410;2022-11-14T08:50:34;101586.56;;;8.82;100.00
10510;BME280;5303;53.266;10.410;2022-11-14T08:52:59;101581.84;;;8.84;100.00
10510;BME280;5303;53.266;10.410;2022-11-14T08:55:24;101588.59;;;8.90;100.00
10510;BME280;5303;53.266;10.410;2022-11-14T08:57:52;101577.56;;;8.92;100.00
10510;BME280;5303;53.266;10.410;2022-11-14T09:00:17;101577.56;;;8.92;100.00
10510;BME280;5303;53.266;10.410;2022-11-14T09:02:42;101576.97;;;8.98;100.00
10510;BME280;5303;53.266;10.410;2022-11-14T09:05:08;101580.56;;;8.98;100.00
10510;BME280;5303;53.266;10.410;2022-11-14T09:07:33;101572.97;;;9.02;100.00
10510;BME280;5303;53.266;10.410;2022-11-14T09:09:58;101569.69;;;8.98;100.00
10510;BME280;5303;53.266;10.410;2022-11-14T09:12:24;101572.97;;;9.02;100.00
10510;BME280;5303;53.266;10.410;2022-11-14T09:14:49;101566.38;;;9.04;100.00
10510;BME280;5303;53.266;10.410;2022-11-14T09:17:14;101562.53;;;9.07;100.00
10510;BME280;5303;53.266;10.410;2022-11-14T09:19:39;101567.25;;;9.05;100.00
10510;BME280;5303;53.266;10.410;2022-11-14T09:22:05;101557.81;;;9.09;100.00
10510;BME280;5303;53.266;10.410;2022-11-14T09:24:30;101572.53;;;9.06;100.00
10510;BME280;5303;53.266;10.410;2022-11-14T09:26:55;101564.22;;;9.08;100.00
10510;BME280;5303;53.266;10.410;2022-11-14T09:29:20;101560.38;;;9.10;100.00
10510;BME280;5303;53.266;10.410;2022-11-14T09:31:46;101561.38;;;9.09;100.00
10510;BME280;5303;53.266;10.410;2022-11-14T09:34:11;101561.78;;;9.15;100.00
10510;BME280;5303;53.266;10.410;2022-11-14T09:36:36;101563.94;;;9.21;100.00
10510;BME280;5303;53.266;10.410;2022-11-14T09:39:01;101553.94;;;9.12;100.00
10510;BME280;5303;53.266;10.410;2022-11-14T09:44:42;101559.66;;;9.28;100.00
10510;BME280;5303;53.266;10.410;2022-11-14T09:47:16;101559.47;;;9.29;100.00
10510;BME280;5303;53.266;10.410;2022-11-14T09:49:46;101561.47;;;9.27;100.00
10510;BME280;5303;53.266;10.410;2022-11-14T09:55:00;101556.47;;;9.32;100.00
10510;BME280;5303;53.266;10.410;2022-11-14T09:57:27;101553.75;;;9.32;100.00
10510;BME280;5303;53.266;10.410;2022-11-14T09:59:53;101546.75;;;9.30;100.00
10510;BME280;5303;53.266;10.410;2022-11-14T10:02:24;101542.91;;;9.23;100.00
10510;BME280;5303;53.266;10.410;2022-11-14T10:05:19;101540.00;;;9.34;100.00
10510;BME280;5303;53.266;10.410;2022-11-14T10:08:10;101533.53;;;9.45;100.00
10510;BME280;5303;53.266;10.410;2022-11-14T10:13:12;101516.69;;;9.69;100.00
10510;BME280;5303;53.266;10.410;2022-11-14T10:21:43;101501.22;;;9.97;100.00
10510;BME280;5303;53.266;10.410;2022-11-14T10:27:00;101491.72;;;9.83;100.00
10510;BME280;5303;53.266;10.410;2022-11-14T10:32:04;101485.72;;;9.97;100.00
10510;BME280;5303;53.266;10.410;2022-11-14T10:37:28;101484.75;;;9.98;100.00
10510;BME280;5303;53.266;10.410;2022-11-14T10:40:12;101484.88;;;9.97;100.00
10510;BME280;5303;53.266;10.410;2022-11-14T10:42:40;101473.53;;;10.01;100.00
10510;BME280;5303;53.266;10.410;2022-11-14T10:47:58;101462.19;;;10.06;100.00
10510;BME280;5303;53.266;10.410;2022-11-14T10:50:30;101464.81;;;9.98;100.00
10510;BME280;5303;53.266;10.410;2022-11-14T10:53:00;101448.00;;;9.85;100.00
10510;BME280;5303;53.266;10.410;2022-11-14T10:55:27;101436.97;;;9.86;100.00
10510;BME280;5303;53.266;10.410;2022-11-14T10:57:53;101428.03;;;9.76;100.00
10510;BME280;5303;53.266;10.410;2022-11-14T11:00:20;101427.88;;;9.77;100.00
10510;BME280;5303;53.266;10.410;2022-11-14T11:02:49;101428.34;;;9.73;100.00
10510;BME280;5303;53.266;10.410;2022-11-14T11:05:17;101423.44;;;9.76;100.00
10510;BME280;5303;53.266;10.410;2022-11-14T11:07:44;101425.31;;;9.76;100.00
10510;BME280;5303;53.266;10.410;2022-11-14T11:10:28;101419.72;;;9.77;100.00
10510;BME280;5303;53.266;10.410;2022-11-14T11:13:28;101411.94;;;9.83;100.00
10510;BME280;5303;53.266;10.410;2022-11-14T11:15:57;101404.16;;;9.88;100.00
10510;BME280;5303;53.266;10.410;2022-11-14T11:18:31;101385.66;;;9.91;100.00
10510;BME280;5303;53.266;10.410;2022-11-14T11:21:11;101394.53;;;9.93;100.00
10510;BME280;5303;53.266;10.410;2022-11-14T11:23:51;101379.06;;;9.94;100.00
10510;BME280;5303;53.266;10.410;2022-11-14T11:26:24;101386.84;;;9.89;100.00
10510;BME280;5303;53.266;10.410;2022-11-14T11:31:27;101369.56;;;9.98;100.00
10510;BME280;5303;53.266;10.410;2022-11-14T11:33:53;101368.56;;;9.99;100.00
10510;BME280;5303;53.266;10.410;2022-11-14T11:36:19;101359.06;;;10.03;100.00
10510;BME280;5303;53.266;10.410;2022-11-14T11:38:46;101356.13;;;9.96;100.00
10510;BME280;5303;53.266;10.410;2022-11-14T11:46:15;101386.91;;;10.15;100.00
10510;BME280;5303;53.266;10.410;2022-11-14T11:48:45;101405.25;;;10.13;100.00
10510;BME280;5303;53.266;10.410;2022-11-14T11:51:18;101403.38;;;10.13;100.00
10510;BME280;5303;53.266;10.410;2022-11-14T11:53:55;101387.28;;;10.20;100.00
10510;BME280;5303;53.266;10.410;2022-11-14T11:56:25;101385.94;;;10.24;100.00
10510;BME280;5303;53.266;10.410;2022-11-14T11:58:54;101388.25;;;10.29;100.00
10510;BME280;5303;53.266;10.410;2022-11-14T12:01:21;101388.06;;;10.30;100.00
10510;BME280;5303;53.266;10.410;2022-11-14T12:03:49;101390.03;;;10.38;100.00
10510;BME280;5303;53.266;10.410;2022-11-14T12:06:18;101398.34;;;10.36;100.00
10510;BME280;5303;53.266;10.410;2022-11-14T12:09:17;101405.53;;;10.37;100.00
10510;BME280;5303;53.266;10.410;2022-11-14T12:11:48;101397.03;;;10.40;100.00
10510;BME280;5303;53.266;10.410;2022-11-14T12:14:49;101382.84;;;10.37;100.00
10510;BME280;5303;53.266;10.410;2022-11-14T12:20:41;101386.81;;;10.42;100.00
10510;BME280;5303;53.266;10.410;2022-11-14T12:26:19;101374.06;;;10.43;100.00
10510;BME280;5303;53.266;10.410;2022-11-14T12:31:38;101373.59;;;10.47;100.00
10510;BME280;5303;53.266;10.410;2022-11-14T12:36:42;101370.06;;;10.55;100.00
10510;BME280;5303;53.266;10.410;2022-11-14T12:39:20;101369.53;;;10.52;100.00
10510;BME280;5303;53.266;10.410;2022-11-14T12:41:47;101355.47;;;10.64;100.00
10510;BME280;5303;53.266;10.410;2022-11-14T12:44:32;101358.53;;;10.61;100.00
10510;BME280;5303;53.266;10.410;2022-11-14T12:52:41;101363.50;;;10.66;100.00
10510;BME280;5303;53.266;10.410;2022-11-14T13:00:16;101344.97;;;10.69;100.00
10510;BME280;5303;53.266;10.410;2022-11-14T13:02:46;101353.28;;;10.68;100.00
10510;BME280;5303;53.266;10.410;2022-11-14T13:05:22;101356.13;;;10.58;100.00
10510;BME280;5303;53.266;10.410;2022-11-14T13:08:26;101338.66;;;10.69;100.00
10510;BME280;5303;53.266;10.410;2022-11-14T13:10:57;101340.84;;;10.65;100.00
10510;BME280;5303;53.266;10.410;2022-11-14T13:13:23;101343.94;;;10.70;100.00
10510;BME280;5303;53.266;10.410;2022-11-14T13:16:22;101359.56;;;10.60;100.00
10510;BME280;5303;53.266;10.410;2022-11-14T13:22:18;101362.00;;;10.71;100.00
10510;BME280;5303;53.266;10.410;2022-11-14T13:27:30;101365.00;;;10.60;100.00
10510;BME280;5303;53.266;10.410;2022-11-14T13:29:56;101363.66;;;10.64;100.00
10510;BME280;5303;53.266;10.410;2022-11-14T13:35:17;101354.78;;;10.62;100.00
10510;BME280;5303;53.266;10.410;2022-11-14T13:38:24;101356.66;;;10.62;100.00
10510;BME280;5303;53.266;10.410;2022-11-14T13:41:21;101346.03;;;10.51;100.00
10510;BME280;5303;53.266;10.410;2022-11-14T13:46:42;101332.44;;;10.59;100.00
10510;BME280;5303;53.266;10.410;2022-11-14T13:52:07;101341.59;;;10.49;100.00
10510;BME280;5303;53.266;10.410;2022-11-14T13:54:36;101333.09;;;10.53;100.00
10510;BME280;5303;53.266;10.410;2022-11-14T14:00:08;101332.88;;;10.46;100.00
10510;BME280;5303;53.266;10.410;2022-11-14T14:05:28;101325.03;;;10.43;100.00
10510;BME280;5303;53.266;10.410;2022-11-14T14:13:17;101329.41;;;10.36;100.00
10510;BME280;5303;53.266;10.410;2022-11-14T14:15:58;101320.56;;;10.34;100.00
10510;BME280;5303;53.266;10.410;2022-11-14T14:18:58;101320.41;;;10.35;100.00
10510;BME280;5303;53.266;10.410;2022-11-14T14:27:24;101314.09;;;10.35;100.00